首页
METAR-TAF:

METAR-TAF

机场 :

紐華克自由國際機場

紐華克, 新泽西州, 美国

纬度: 40-40-57N, 经度: 074-10-10W, 海拔: 5米

当前天气观测

该预报发布于25分钟前的07:51 UTC
风速7节,风向西转西南
温度 3°C
湿度 93%
气压 1009 hPa
能見度: 16.1公里
少量云层高于1500英尺

METAR: KEWR 260751Z 24007KT 10SM FEW015 03/02 A2980 RMK AO2 SLP091 T00330017

时间: 03:16 (08:16 UTC)

预报

该预报发布于2小时和45分钟前的05:31 UTC
预报有效从26日的 06点(UTC)到 27日的 12点(UTC)
风速6节,风向西
能見度: 10公里
少量云层高于1700英尺
从 26日的 1200点(UTC)
风速10节,风向西
能見度: 10公里
散云层高于5000英尺
多云层高于10000英尺
从 26日的 1800点(UTC)
风速10节,风向西,有时为16节阵风
能見度: 10公里
散云层高于10000英尺
散云层高于25000英尺
从 26日的 2300点(UTC)
风速11节,风向西
能見度: 10公里
散云层高于12000英尺
散云层高于25000英尺
从 27日的 0500点(UTC)
风速12节,风向西转西南
能見度: 10公里
多云层高于12000英尺

TAF: KEWR 260531Z 2606/2712 26006KT P6SM FEW017 FM261200 27010KT P6SM SCT050 BKN100 FM261800 27010G16KT P6SM SCT100 SCT250 FM262300 26011KT P6SM SCT120 SCT250 FM270500 25012KT P6SM BKN120

超过4000个机场的气象观测和天气预报(METAR&TAF报告)。

可查询的气象台以黄色和红色小点在地图上表示。

将鼠标移到小点上方,可查看气象台名称。

然后点击查看天气观测和预报。

如需切换地图:点击带黑十字的绿色按钮放大地图;点击带横线的绿色按钮缩小地图;或者点击绿色箭头查看邻近地区的地图。


METAR-TAF: